KRKS/RKS METAR and TAF weather

Enter ICAO airport designator
Station Type Date Time Source
KRKS METAR 2020/01/27 10:54 UTC NOAA

KRKS 271054Z AUTO 24016KT 5SM -SN BR FEW003 BKN008 OVC016 M01/M01 A2994 RMK AO2 SLP144 P0000 T10111011


Station Type Date Time Source
KRKS Decoded METAR 2020/01/27 10:54 UTC NOAA

ROCK SPRINGS-SWEETWATER CO, WY, United States (KRKS) 41-36N 109-03W
Jan 27, 2020 - 05:54 AM EST / 2020.01.27 1054 UTC
Wind: from the WSW (240 degrees) at 18 MPH (16 KT):0
Visibility: 5 mile(s):0
Sky conditions: overcast
Weather: light snow; mist
Precipitation last hour: A trace
Temperature: 30.0 F (-1.1 C)
Windchill: 17 F (-8 C):1
Dew Point: 30.0 F (-1.1 C)
Relative Humidity: 100%
Pressure (altimeter): 29.94 in. Hg (1013 hPa)
ob: KRKS 271054Z AUTO 24016KT 5SM -SN BR FEW003 BKN008 OVC016 M01/M01 A2994 RMK AO2 SLP144 P0000 T10111011
cycle: 11

Station Type Date Time Source
KRKS TAF 2020/01/27 06:27 UTC NOAA

TAF KRKS 270525Z 2706/2806 20006KT P6SM VCSH BKN040
FM270800 21007KT 3SM -SN OVC022
TEMPO 2708/2712 1SM -SN OVC010
FM271300 27020G30KT P6SM SCT025 BKN050
FM271800 27022G32KT P6SM SCT050 SCT080
FM280100 26016KT P6SM FEW080

Example: see airport list